createdAt,value
2018-09-18T00:02:19.490Z,18.87
2018-09-18T00:04:48.069Z,21.37
2018-09-18T00:07:16.964Z,18.13
2018-09-18T00:09:45.462Z,21.20
2018-09-18T00:12:14.074Z,23.37
2018-09-18T00:14:42.580Z,21.77
2018-09-18T00:17:11.117Z,18.67
2018-09-18T00:19:39.643Z,21.63
2018-09-18T00:22:08.237Z,23.77
2018-09-18T00:24:36.764Z,17.93
2018-09-18T00:27:05.346Z,20.57
2018-09-18T00:29:33.957Z,20.43
2018-09-18T00:32:02.660Z,24.10
2018-09-18T00:34:31.407Z,19.13
2018-09-18T00:37:00.050Z,20.20
2018-09-18T00:39:28.589Z,22.33
2018-09-18T00:41:57.152Z,20.53
2018-09-18T00:44:25.681Z,20.53
2018-09-18T00:46:54.222Z,20.53
2018-09-18T00:49:22.925Z,21.90
2018-09-18T00:51:51.432Z,23.40
2018-09-18T00:54:19.946Z,21.43
2018-09-18T00:56:48.506Z,20.67
2018-09-18T00:59:17.010Z,20.27
2018-09-18T01:01:45.533Z,20.90
2018-09-18T01:04:14.085Z,21.47
2018-09-18T01:06:42.661Z,17.30
2018-09-18T01:09:11.565Z,23.00
2018-09-18T01:11:40.493Z,21.30
2018-09-18T01:14:09.010Z,19.17
2018-09-18T01:16:37.905Z,19.10
2018-09-18T01:19:06.612Z,21.53
2018-09-18T01:21:35.143Z,19.07
2018-09-18T01:24:03.760Z,20.77
2018-09-18T01:26:32.268Z,20.57
2018-09-18T01:29:00.846Z,21.97
2018-09-18T01:31:29.695Z,21.93
2018-09-18T01:33:58.217Z,23.17
2018-09-18T01:36:26.789Z,20.80
2018-09-18T01:38:55.394Z,27.70
2018-09-18T01:41:23.956Z,21.60
2018-09-18T01:43:52.547Z,18.00
2018-09-18T01:46:22.184Z,22.40
2018-09-18T01:48:50.791Z,19.40
2018-09-18T01:51:19.314Z,22.20
2018-09-18T01:53:47.824Z,19.07
2018-09-18T01:56:16.465Z,19.67
2018-09-18T01:58:45.032Z,21.27
2018-09-18T02:01:14.350Z,20.53
2018-09-18T02:03:43.087Z,21.83
2018-09-18T02:06:11.624Z,20.00
2018-09-18T02:08:40.212Z,19.97
2018-09-18T02:11:08.669Z,19.03
2018-09-18T02:13:37.177Z,22.70
2018-09-18T02:16:05.717Z,21.60
2018-09-18T02:18:34.214Z,19.90
2018-09-18T02:21:02.772Z,20.67
2018-09-18T02:23:31.676Z,22.33
2018-09-18T02:26:00.151Z,20.93
2018-09-18T02:28:28.918Z,20.67
2018-09-18T02:30:58.266Z,20.57
2018-09-18T02:33:26.982Z,20.93
2018-09-18T02:35:55.506Z,19.27
2018-09-18T02:38:24.212Z,19.43
2018-09-18T02:40:52.724Z,19.23
2018-09-18T02:43:21.505Z,23.60
2018-09-18T02:45:50.016Z,18.77
2018-09-18T02:48:18.706Z,22.67
2018-09-18T02:50:47.176Z,19.43
2018-09-18T02:53:15.690Z,19.27
2018-09-18T02:55:44.200Z,22.73
2018-09-18T02:58:12.932Z,20.40
2018-09-18T03:00:41.526Z,19.97
2018-09-18T03:03:10.008Z,20.17
2018-09-18T03:05:38.519Z,19.97
2018-09-18T03:08:07.592Z,21.83
2018-09-18T03:10:36.100Z,19.40
2018-09-18T03:13:04.636Z,19.73
2018-09-18T03:15:33.229Z,19.50
2018-09-18T03:18:01.824Z,18.97
2018-09-18T03:20:30.337Z,19.77
2018-09-18T03:22:58.900Z,18.43
2018-09-18T03:25:27.409Z,17.97
2018-09-18T03:27:55.976Z,17.30
2018-09-18T03:30:24.959Z,18.63
2018-09-18T03:32:53.533Z,20.70
2018-09-18T03:35:22.025Z,20.57
2018-09-18T03:37:50.578Z,17.13
2018-09-18T03:40:19.128Z,20.87
2018-09-18T03:42:47.733Z,16.67
2018-09-18T03:45:16.264Z,16.70
2018-09-18T03:47:44.872Z,15.90
2018-09-18T03:50:13.399Z,18.27
2018-09-18T03:52:41.893Z,16.17
2018-09-18T03:55:10.428Z,17.30
2018-09-18T03:57:39.222Z,16.97
2018-09-18T04:00:07.962Z,15.60
2018-09-18T04:02:36.483Z,17.73
2018-09-18T04:05:05.481Z,15.07
2018-09-18T04:07:34.140Z,16.23
2018-09-18T04:10:02.638Z,14.47
2018-09-18T04:12:33.260Z,15.13
2018-09-18T04:15:01.971Z,16.17
2018-09-18T04:17:30.673Z,13.87
2018-09-18T04:19:59.244Z,13.57
2018-09-18T04:22:27.748Z,15.10
2018-09-18T04:24:56.274Z,14.60
2018-09-18T04:27:24.788Z,13.80
2018-09-18T04:29:53.320Z,15.60
2018-09-18T04:32:21.839Z,14.83
2018-09-18T04:34:51.407Z,15.20
2018-09-18T04:37:20.010Z,14.23
2018-09-18T04:39:48.685Z,15.67
2018-09-18T04:42:17.195Z,15.20
2018-09-18T04:44:45.751Z,17.67
2018-09-18T04:47:14.538Z,15.70
2018-09-18T04:49:43.306Z,17.53
2018-09-18T04:52:11.846Z,14.93
2018-09-18T04:54:40.422Z,13.20
2018-09-18T04:57:09.024Z,16.53
2018-09-18T04:59:37.672Z,12.43
2018-09-18T05:02:06.384Z,14.20
2018-09-18T05:04:35.201Z,13.37
2018-09-18T05:07:03.705Z,14.27
2018-09-18T05:09:32.309Z,12.93
2018-09-18T05:12:00.872Z,14.97
2018-09-18T05:14:29.379Z,13.20
2018-09-18T05:16:58.117Z,13.53
2018-09-18T05:19:26.633Z,13.27
2018-09-18T05:21:55.244Z,12.47
2018-09-18T05:24:23.828Z,13.57
2018-09-18T05:26:52.354Z,12.70
2018-09-18T05:29:20.940Z,14.03
2018-09-18T05:31:49.530Z,12.63
2018-09-18T05:34:18.389Z,13.80
2018-09-18T05:36:46.938Z,14.63
2018-09-18T05:39:15.497Z,13.10
2018-09-18T05:41:44.145Z,12.67
2018-09-18T05:44:12.784Z,13.13
2018-09-18T05:46:41.334Z,13.63
2018-09-18T05:49:09.831Z,11.93
2018-09-18T05:51:38.375Z,12.73
2018-09-18T05:54:06.916Z,15.47
2018-09-18T05:56:35.689Z,12.40
2018-09-18T05:59:04.243Z,10.77
2018-09-18T06:01:32.728Z,11.60
2018-09-18T06:04:01.251Z,12.40
2018-09-18T06:06:29.749Z,12.27
2018-09-18T06:08:58.731Z,12.40
2018-09-18T06:11:27.205Z,11.80
2018-09-18T06:13:55.741Z,11.80
2018-09-18T06:16:24.248Z,10.63
2018-09-18T06:18:52.943Z,12.27
2018-09-18T06:21:21.581Z,11.77
2018-09-18T06:23:50.228Z,10.70
2018-09-18T06:26:18.815Z,12.67
2018-09-18T06:28:47.522Z,16.50
2018-09-18T06:31:16.013Z,11.90
2018-09-18T06:33:44.501Z,14.10
2018-09-18T06:36:13.202Z,10.57
2018-09-18T06:38:41.701Z,12.53
2018-09-18T06:41:10.212Z,13.10
2018-09-18T06:43:38.781Z,12.23
2018-09-18T06:46:07.707Z,10.77
2018-09-18T06:48:36.599Z,13.70
2018-09-18T06:51:05.106Z,12.33
2018-09-18T06:53:33.644Z,10.97
2018-09-18T06:56:02.170Z,10.77
2018-09-18T06:58:30.762Z,10.57
2018-09-18T07:00:59.411Z,11.20
2018-09-18T07:03:27.931Z,12.13
2018-09-18T07:05:56.460Z,10.97
2018-09-18T07:08:25.220Z,11.70
2018-09-18T07:10:53.698Z,10.40
2018-09-18T07:13:22.202Z,11.73
2018-09-18T07:15:50.709Z,10.73
2018-09-18T07:18:19.227Z,14.07
2018-09-18T07:20:47.809Z,11.23
2018-09-18T07:23:16.307Z,10.07
2018-09-18T07:25:44.931Z,11.63
2018-09-18T07:28:14.621Z,11.27
2018-09-18T07:30:43.150Z,9.77
2018-09-18T07:33:11.647Z,8.93
2018-09-18T07:35:40.154Z,8.00
2018-09-18T07:38:08.863Z,9.87
2018-09-18T07:40:37.346Z,9.13
2018-09-18T07:43:06.107Z,11.07
2018-09-18T07:45:34.609Z,10.27
2018-09-18T07:48:03.076Z,12.00
2018-09-18T07:50:31.945Z,12.17
2018-09-18T07:53:00.432Z,7.70
2018-09-18T07:55:28.982Z,7.23
2018-09-18T07:57:57.476Z,6.93
2018-09-18T08:00:25.993Z,10.30
2018-09-18T08:02:54.547Z,12.30
2018-09-18T08:05:23.165Z,9.17
2018-09-18T08:07:51.692Z,8.30
2018-09-18T08:10:20.238Z,9.07
2018-09-18T08:12:48.731Z,14.80
2018-09-18T08:15:23.585Z,6.93
2018-09-18T08:17:52.088Z,9.87
2018-09-18T08:20:20.579Z,9.30
2018-09-18T08:22:49.182Z,6.77
2018-09-18T08:25:17.811Z,11.00
2018-09-18T08:27:46.247Z,9.43
2018-09-18T08:30:14.775Z,7.23
2018-09-18T08:32:43.407Z,5.97
2018-09-18T08:35:11.841Z,7.97
2018-09-18T08:37:40.316Z,7.23
2018-09-18T08:40:09.076Z,5.57
2018-09-18T08:42:38.003Z,7.50
2018-09-18T08:45:06.691Z,10.27
2018-09-18T08:47:35.816Z,10.70
2018-09-18T08:50:04.647Z,10.30
2018-09-18T08:52:33.157Z,8.10
2018-09-18T08:55:01.701Z,8.30
2018-09-18T08:57:30.259Z,8.03
2018-09-18T08:59:58.945Z,6.73
2018-09-18T09:02:28.201Z,5.83
2018-09-18T09:04:56.723Z,7.93
2018-09-18T09:07:25.456Z,7.43
2018-09-18T09:09:54.071Z,8.00
2018-09-18T09:12:22.606Z,10.57
2018-09-18T09:14:51.148Z,9.13
2018-09-18T09:17:19.645Z,5.17
2018-09-18T09:19:48.127Z,6.77
2018-09-18T09:22:17.004Z,5.47
2018-09-18T09:24:45.553Z,5.73
2018-09-18T09:27:14.051Z,10.67
2018-09-18T09:29:42.613Z,11.20
2018-09-18T09:32:11.176Z,8.73
2018-09-18T09:34:39.623Z,6.67
2018-09-18T09:37:08.193Z,7.40
2018-09-18T09:39:36.634Z,6.40
2018-09-18T09:42:05.174Z,6.73
2018-09-18T09:44:33.660Z,7.73
2018-09-18T09:47:02.125Z,9.10
2018-09-18T09:49:30.653Z,9.57
2018-09-18T09:51:59.361Z,6.93
2018-09-18T09:54:27.845Z,7.73
2018-09-18T09:56:56.366Z,8.33
2018-09-18T09:59:25.013Z,7.77
2018-09-18T10:01:58.809Z,8.40
2018-09-18T10:04:27.319Z,11.00
2018-09-18T10:06:55.851Z,7.93
2018-09-18T10:09:24.357Z,7.27
2018-09-18T10:11:52.853Z,7.73
2018-09-18T10:14:21.752Z,8.90
2018-09-18T10:16:50.205Z,9.17
2018-09-18T10:19:18.793Z,7.53
2018-09-18T10:21:47.323Z,11.80
2018-09-18T10:24:15.864Z,9.47
2018-09-18T10:26:44.468Z,7.97
2018-09-18T10:29:12.940Z,8.13
2018-09-18T10:31:41.800Z,6.77
2018-09-18T10:34:10.295Z,7.20
2018-09-18T10:36:38.828Z,7.67
2018-09-18T10:39:08.996Z,9.67
2018-09-18T10:41:37.545Z,7.33
2018-09-18T10:44:06.082Z,11.97
2018-09-18T10:46:34.597Z,8.20
2018-09-18T10:49:03.179Z,8.47
2018-09-18T10:51:31.932Z,7.30
2018-09-18T10:54:00.432Z,8.20
2018-09-18T10:56:28.925Z,9.87
2018-09-18T10:58:57.797Z,8.77
2018-09-18T11:01:26.331Z,8.17
2018-09-18T11:03:55.034Z,6.13
2018-09-18T11:06:23.591Z,11.47
2018-09-18T11:08:52.135Z,9.30
2018-09-18T11:11:20.688Z,8.47
2018-09-18T11:13:49.310Z,7.40
2018-09-18T11:16:17.700Z,10.10
2018-09-18T11:18:46.279Z,11.03
2018-09-18T11:21:14.908Z,19.00
2018-09-18T11:23:43.472Z,8.17
2018-09-18T11:26:11.931Z,9.73
2018-09-18T11:28:40.511Z,13.03
2018-09-18T11:31:09.085Z,10.20
2018-09-18T11:33:37.648Z,10.30
2018-09-18T11:36:06.272Z,10.17
2018-09-18T11:38:34.769Z,10.97
2018-09-18T11:41:03.362Z,11.03
2018-09-18T11:43:31.894Z,10.13
2018-09-18T11:46:00.621Z,9.97
2018-09-18T11:48:29.015Z,8.90
2018-09-18T11:50:57.924Z,7.77
2018-09-18T11:53:26.434Z,8.30
2018-09-18T11:55:55.084Z,8.03
2018-09-18T11:58:23.663Z,10.10
2018-09-18T12:00:52.302Z,9.27
2018-09-18T12:03:20.865Z,11.50
2018-09-18T12:05:49.485Z,10.17
2018-09-18T12:08:18.052Z,9.07
2018-09-18T12:10:46.552Z,9.50
2018-09-18T12:13:15.083Z,13.80
2018-09-18T12:15:43.592Z,9.43
2018-09-18T12:18:12.195Z,9.50
2018-09-18T12:20:40.757Z,7.47
2018-09-18T12:23:09.363Z,8.17
2018-09-18T12:25:37.970Z,10.63
2018-09-18T12:28:06.473Z,10.80
2018-09-18T12:30:35.942Z,9.57
2018-09-18T12:33:04.725Z,6.00
2018-09-18T12:35:33.368Z,9.03
2018-09-18T12:38:01.850Z,8.43
2018-09-18T12:40:30.369Z,7.93
2018-09-18T12:42:58.924Z,6.73
2018-09-18T12:45:27.469Z,7.57
2018-09-18T12:47:56.043Z,5.27
2018-09-18T12:50:24.675Z,10.50
2018-09-18T12:52:53.052Z,7.77
2018-09-18T12:55:21.610Z,6.20
2018-09-18T12:57:50.157Z,6.37
2018-09-18T13:00:18.847Z,6.57
2018-09-18T13:02:47.274Z,6.57
2018-09-18T13:05:15.850Z,6.63
2018-09-18T13:07:44.358Z,7.97
2018-09-18T13:10:12.924Z,7.50
2018-09-18T13:12:41.571Z,6.17
2018-09-18T13:15:10.084Z,4.10
2018-09-18T13:17:38.846Z,7.93
2018-09-18T13:20:07.408Z,6.03
2018-09-18T13:22:35.944Z,7.80
2018-09-18T13:25:04.881Z,5.47
2018-09-18T13:27:33.390Z,4.50
2018-09-18T13:30:01.956Z,5.90
2018-09-18T13:32:30.453Z,9.07
2018-09-18T13:34:58.980Z,5.17
2018-09-18T13:37:27.534Z,13.37
2018-09-18T13:39:56.065Z,10.37
2018-09-18T13:42:24.571Z,10.57
2018-09-18T13:44:53.184Z,5.20
2018-09-18T13:47:21.768Z,11.50
2018-09-18T13:49:50.317Z,7.57
2018-09-18T13:52:18.875Z,8.30
2018-09-18T13:54:47.396Z,4.10
2018-09-18T13:57:15.932Z,7.57
2018-09-18T13:59:44.538Z,7.33
2018-09-18T14:02:13.069Z,8.17
2018-09-18T14:04:41.632Z,6.00
2018-09-18T14:07:10.407Z,6.87
2018-09-18T14:09:38.960Z,5.80
2018-09-18T14:12:07.591Z,9.80
2018-09-18T14:14:36.181Z,5.20
2018-09-18T14:17:04.716Z,4.17
2018-09-18T14:19:33.186Z,7.83
2018-09-18T14:22:01.768Z,10.07
2018-09-18T14:24:30.293Z,8.73
2018-09-18T14:26:58.829Z,6.50
2018-09-18T14:29:27.376Z,9.87
2018-09-18T14:31:55.898Z,5.87
2018-09-18T14:34:24.461Z,6.27
2018-09-18T14:36:53.257Z,6.60
2018-09-18T14:39:21.885Z,7.77
2018-09-18T14:41:50.519Z,4.63
2018-09-18T14:44:19.159Z,9.00
2018-09-18T14:46:47.742Z,8.37
2018-09-18T14:49:16.329Z,7.03
2018-09-18T14:51:44.862Z,7.80
2018-09-18T14:54:13.601Z,5.47
2018-09-18T14:56:42.120Z,5.13
2018-09-18T14:59:10.729Z,4.00
2018-09-18T15:01:39.335Z,7.43
2018-09-18T15:04:08.096Z,4.70
2018-09-18T15:06:36.663Z,12.40
2018-09-18T15:09:09.145Z,4.50
2018-09-18T15:11:37.749Z,4.23
2018-09-18T15:14:06.411Z,8.70
2018-09-18T15:16:35.389Z,4.33
2018-09-18T15:19:04.039Z,6.40
2018-09-18T15:21:32.580Z,6.50
2018-09-18T15:24:01.163Z,5.17
2018-09-18T15:26:29.665Z,8.27
2018-09-18T15:28:58.173Z,8.10
2018-09-18T15:31:26.698Z,7.10
2018-09-18T15:33:55.259Z,6.23
2018-09-18T15:36:23.842Z,6.50
2018-09-18T15:38:52.446Z,11.13
2018-09-18T15:41:20.925Z,6.67
2018-09-18T15:43:49.488Z,10.50
2018-09-18T15:46:19.855Z,6.33
2018-09-18T15:48:48.377Z,12.67
2018-09-18T15:51:17.002Z,7.30
2018-09-18T15:53:45.542Z,7.30
2018-09-18T15:56:14.039Z,4.03
2018-09-18T15:58:42.583Z,10.03
2018-09-18T16:01:11.181Z,7.17
2018-09-18T16:03:39.706Z,7.73
2018-09-18T16:06:08.292Z,8.20
2018-09-18T16:08:36.857Z,5.20
2018-09-18T16:11:05.382Z,5.70
2018-09-18T16:13:34.022Z,8.50
2018-09-18T16:16:02.664Z,8.83
2018-09-18T16:18:31.199Z,5.83
2018-09-18T16:20:59.723Z,10.13
2018-09-18T16:23:28.252Z,6.30
2018-09-18T16:25:56.825Z,8.47
2018-09-18T16:28:25.323Z,5.73
2018-09-18T16:30:54.015Z,7.47
2018-09-18T16:33:22.564Z,6.57
2018-09-18T16:35:51.093Z,7.40
2018-09-18T16:38:19.566Z,5.73
2018-09-18T16:40:48.257Z,5.63
2018-09-18T16:43:16.710Z,8.30
2018-09-18T16:45:45.317Z,9.37
2018-09-18T16:48:13.852Z,7.53
2018-09-18T16:50:42.617Z,8.07
2018-09-18T16:53:11.204Z,9.10
2018-09-18T16:55:39.681Z,11.00
2018-09-18T16:58:08.345Z,10.50
2018-09-18T17:00:36.964Z,7.50
2018-09-18T17:03:05.816Z,7.30
2018-09-18T17:05:34.340Z,6.03
2018-09-18T17:08:02.909Z,9.20
2018-09-18T17:10:31.563Z,6.00
2018-09-18T17:13:00.035Z,7.83
2018-09-18T17:15:28.573Z,14.17
2018-09-18T17:17:57.105Z,11.93
2018-09-18T17:20:25.624Z,13.67
2018-09-18T17:22:54.252Z,11.37
2018-09-18T17:25:22.951Z,9.80
2018-09-18T17:27:51.502Z,13.20
2018-09-18T17:30:20.056Z,14.43
2018-09-18T17:32:48.606Z,12.20
2018-09-18T17:35:17.138Z,11.90
2018-09-18T17:37:45.666Z,11.87
2018-09-18T17:40:14.275Z,10.33
2018-09-18T17:42:42.872Z,13.23
2018-09-18T17:45:11.428Z,15.10
2018-09-18T17:47:39.943Z,11.17
2018-09-18T17:50:08.508Z,6.97
2018-09-18T17:52:37.089Z,16.03
2018-09-18T17:55:05.793Z,16.10
2018-09-18T17:57:34.414Z,12.03
2018-09-18T18:00:03.024Z,10.77
2018-09-18T18:02:31.578Z,12.83
2018-09-18T18:05:00.219Z,14.33
2018-09-18T18:07:28.823Z,15.37
2018-09-18T18:09:57.366Z,10.60
2018-09-18T18:12:26.893Z,16.87
2018-09-18T18:14:55.575Z,13.33
2018-09-18T18:17:24.157Z,12.33
2018-09-18T18:19:52.621Z,15.57
2018-09-18T18:22:21.397Z,11.77
2018-09-18T18:24:50.168Z,18.70
2018-09-18T18:27:18.699Z,12.83
2018-09-18T18:29:47.225Z,12.00
2018-09-18T18:32:15.800Z,16.87
2018-09-18T18:34:44.467Z,17.63
2018-09-18T18:37:13.057Z,12.47
2018-09-18T18:39:41.681Z,12.87
2018-09-18T18:42:10.393Z,11.63
2018-09-18T18:44:39.196Z,13.07
2018-09-18T18:47:07.807Z,14.27
2018-09-18T18:49:37.863Z,17.50
2018-09-18T18:52:07.208Z,15.77
2018-09-18T18:54:36.021Z,12.70
2018-09-18T18:57:05.103Z,15.67
2018-09-18T18:59:33.735Z,14.53
2018-09-18T19:02:02.910Z,10.70
2018-09-18T19:04:31.869Z,12.10
2018-09-18T19:07:00.647Z,13.57
2018-09-18T19:09:29.700Z,12.93
2018-09-18T19:11:58.353Z,11.60
2018-09-18T19:14:27.075Z,13.10
2018-09-18T19:16:55.682Z,15.33
2018-09-18T19:19:25.018Z,15.10
2018-09-18T19:21:54.051Z,14.57
2018-09-18T19:24:22.661Z,15.03
2018-09-18T19:26:51.289Z,17.37
2018-09-18T19:29:19.861Z,14.77
2018-09-18T19:31:48.429Z,13.37
2018-09-18T19:34:17.001Z,14.67
2018-09-18T19:36:46.068Z,15.43
2018-09-18T19:39:14.746Z,14.60
2018-09-18T19:41:43.292Z,20.17
2018-09-18T19:44:11.948Z,15.90
2018-09-18T19:46:41.202Z,17.93
2018-09-18T19:49:10.155Z,19.40
2018-09-18T19:51:39.824Z,15.43
2018-09-18T19:54:08.361Z,16.13
2018-09-18T19:56:37.033Z,16.43
2018-09-18T19:59:05.590Z,13.33
2018-09-18T20:01:34.281Z,14.90
2018-09-18T20:04:02.962Z,13.63
2018-09-18T20:06:31.657Z,16.30
2018-09-18T20:09:00.318Z,17.33
2018-09-18T20:11:29.262Z,16.27
2018-09-18T20:13:57.928Z,15.83
2018-09-18T20:16:27.152Z,13.97
2018-09-18T20:18:55.786Z,17.47
2018-09-18T20:21:24.414Z,16.70
2018-09-18T20:23:53.032Z,17.73
2018-09-18T20:26:21.606Z,13.33
2018-09-18T20:28:50.331Z,25.30
2018-09-18T20:31:18.844Z,15.17
2018-09-18T20:33:47.376Z,17.23
2018-09-18T20:36:16.170Z,17.50
2018-09-18T20:38:44.660Z,15.83
2018-09-18T20:41:13.299Z,18.03
2018-09-18T20:43:42.070Z,14.00
2018-09-18T20:46:10.573Z,11.83
2018-09-18T20:48:39.063Z,14.10
2018-09-18T20:51:07.577Z,15.23
2018-09-18T20:53:36.273Z,15.93
2018-09-18T20:56:04.843Z,15.13
2018-09-18T20:58:33.403Z,17.50
2018-09-18T21:01:02.239Z,18.13
2018-09-18T21:03:30.740Z,13.03
2018-09-18T21:05:59.226Z,15.23
2018-09-18T21:08:27.824Z,12.20
2018-09-18T21:10:56.457Z,17.43
2018-09-18T21:13:25.317Z,17.70
2018-09-18T21:15:53.837Z,11.20
2018-09-18T21:18:22.355Z,13.80
2018-09-18T21:20:51.016Z,14.93
2018-09-18T21:23:19.457Z,14.47
2018-09-18T21:26:05.724Z,13.60
2018-09-18T21:28:34.418Z,19.03
2018-09-18T21:31:02.915Z,15.10
2018-09-18T21:33:32.076Z,15.30
2018-09-18T21:36:01.109Z,14.50
2018-09-18T21:38:30.017Z,15.70
2018-09-18T21:40:58.945Z,14.50
2018-09-18T21:43:28.321Z,19.10
2018-09-18T21:45:56.876Z,15.43
2018-09-18T21:48:25.469Z,19.03
2018-09-18T21:50:53.994Z,17.17
2018-09-18T21:53:22.619Z,18.20
2018-09-18T21:55:51.165Z,11.87
2018-09-18T21:58:19.706Z,16.07
2018-09-18T22:00:48.267Z,14.13
2018-09-18T22:03:16.797Z,13.20
2018-09-18T22:05:45.294Z,14.53
2018-09-18T22:08:13.851Z,15.87
2018-09-18T22:10:42.375Z,16.13
2018-09-18T22:13:10.861Z,19.73
2018-09-18T22:15:39.369Z,15.27
2018-09-18T22:18:08.037Z,16.07
2018-09-18T22:20:36.688Z,19.23
2018-09-18T22:23:05.260Z,17.37
2018-09-18T22:25:34.135Z,16.23
2018-09-18T22:28:02.619Z,19.30
2018-09-18T22:30:31.274Z,13.27
2018-09-18T22:32:59.948Z,14.27
2018-09-18T22:35:28.445Z,19.80
2018-09-18T22:37:57.352Z,16.67
2018-09-18T22:40:25.877Z,19.40
2018-09-18T22:42:54.520Z,15.73
2018-09-18T22:45:23.066Z,15.63
2018-09-18T22:47:51.614Z,13.67
2018-09-18T22:50:20.128Z,15.60
2018-09-18T22:52:48.693Z,20.23
2018-09-18T22:55:17.193Z,15.50
2018-09-18T22:57:45.810Z,14.93
2018-09-18T23:00:14.369Z,19.40
2018-09-18T23:02:42.885Z,14.63
2018-09-18T23:05:11.547Z,17.77
2018-09-18T23:07:40.012Z,15.60
2018-09-18T23:10:08.506Z,14.40
2018-09-18T23:12:37.093Z,12.63
2018-09-18T23:15:05.662Z,16.67
2018-09-18T23:17:34.184Z,17.03
2018-09-18T23:20:03.229Z,16.43
2018-09-18T23:22:31.703Z,16.03
2018-09-18T23:25:00.212Z,18.93
2018-09-18T23:27:28.754Z,18.27
2018-09-18T23:29:57.393Z,18.00
2018-09-18T23:32:26.066Z,17.67
2018-09-18T23:34:54.533Z,13.50
2018-09-18T23:37:23.468Z,16.80
2018-09-18T23:39:51.949Z,10.47
2018-09-18T23:42:20.530Z,17.03
2018-09-18T23:44:48.977Z,14.57
2018-09-18T23:47:17.548Z,13.07
2018-09-18T23:49:46.124Z,17.53
2018-09-18T23:52:15.178Z,16.93
2018-09-18T23:54:43.774Z,14.07
2018-09-18T23:57:12.312Z,13.67
2018-09-18T23:59:40.925Z,18.83
